sensor_id;sensor_type;location;lat;lon;timestamp;pressure;altitude;pressure_sealevel;temperature;humidity
73245;BME280;61460;41.158;-73.238;2023-03-01T00:01:46;101276.62;;;22.88;33.83
73245;BME280;61460;41.158;-73.238;2023-03-01T00:04:18;101279.56;;;22.86;33.77
73245;BME280;61460;41.158;-73.238;2023-03-01T00:06:48;101279.91;;;22.63;34.12
73245;BME280;61460;41.158;-73.238;2023-03-01T00:09:18;101289.43;;;22.68;34.08
73245;BME280;61460;41.158;-73.238;2023-03-01T00:11:49;101292.07;;;22.84;33.80
73245;BME280;61460;41.158;-73.238;2023-03-01T00:14:19;101297.74;;;22.86;33.79
73245;BME280;61460;41.158;-73.238;2023-03-01T00:16:50;101305.03;;;22.88;33.75
73245;BME280;61460;41.158;-73.238;2023-03-01T00:19:21;101312.52;;;22.91;33.71
73245;BME280;61460;41.158;-73.238;2023-03-01T00:21:52;101320.82;;;22.90;33.64
73245;BME280;61460;41.158;-73.238;2023-03-01T00:24:22;101321.82;;;22.91;33.63
73245;BME280;61460;41.158;-73.238;2023-03-01T00:26:53;101326.02;;;22.95;33.72
73245;BME280;61460;41.158;-73.238;2023-03-01T00:29:25;101334.22;;;22.87;34.01
73245;BME280;61460;41.158;-73.238;2023-03-01T00:31:54;101336.89;;;22.93;34.94
73245;BME280;61460;41.158;-73.238;2023-03-01T00:34:25;101342.17;;;23.04;34.46
73245;BME280;61460;41.158;-73.238;2023-03-01T00:36:55;101346.33;;;23.09;34.12
73245;BME280;61460;41.158;-73.238;2023-03-01T00:39:26;101344.77;;;23.09;33.96
73245;BME280;61460;41.158;-73.238;2023-03-01T00:41:57;101350.15;;;23.21;33.26
73245;BME280;61460;41.158;-73.238;2023-03-01T00:44:27;101352.59;;;23.15;33.84
73245;BME280;61460;41.158;-73.238;2023-03-01T00:46:58;101350.39;;;23.12;33.76
73245;BME280;61460;41.158;-73.238;2023-03-01T00:49:29;101356.69;;;23.09;33.77
73245;BME280;61460;41.158;-73.238;2023-03-01T00:51:59;101360.66;;;23.19;33.88
73245;BME280;61460;41.158;-73.238;2023-03-01T00:54:30;101355.90;;;23.25;33.91
73245;BME280;61460;41.158;-73.238;2023-03-01T00:57:00;101359.48;;;23.32;33.69
73245;BME280;61460;41.158;-73.238;2023-03-01T00:59:31;101360.64;;;23.33;33.58
73245;BME280;61460;41.158;-73.238;2023-03-01T01:02:03;101361.07;;;23.05;33.75
73245;BME280;61460;41.158;-73.238;2023-03-01T01:04:32;101364.01;;;23.02;33.76
73245;BME280;61460;41.158;-73.238;2023-03-01T01:07:03;101371.10;;;22.90;33.80
73245;BME280;61460;41.158;-73.238;2023-03-01T01:09:34;101377.29;;;22.96;33.72
73245;BME280;61460;41.158;-73.238;2023-03-01T01:12:06;101382.51;;;23.03;33.60
73245;BME280;61460;41.158;-73.238;2023-03-01T01:14:36;101386.91;;;22.84;34.03
73245;BME280;61460;41.158;-73.238;2023-03-01T01:17:06;101388.46;;;22.93;33.91
73245;BME280;61460;41.158;-73.238;2023-03-01T01:19:36;101390.62;;;22.97;33.96
73245;BME280;61460;41.158;-73.238;2023-03-01T01:22:07;101397.30;;;23.09;33.70
73245;BME280;61460;41.158;-73.238;2023-03-01T01:24:38;101399.87;;;23.17;35.87
73245;BME280;61460;41.158;-73.238;2023-03-01T01:27:08;101413.31;;;23.27;36.14
73245;BME280;61460;41.158;-73.238;2023-03-01T01:29:39;101420.23;;;23.39;36.17
73245;BME280;61460;41.158;-73.238;2023-03-01T01:32:10;101419.48;;;23.40;36.25
73245;BME280;61460;41.158;-73.238;2023-03-01T01:34:40;101422.18;;;23.38;36.21
73245;BME280;61460;41.158;-73.238;2023-03-01T01:37:11;101425.89;;;23.58;37.10
73245;BME280;61460;41.158;-73.238;2023-03-01T01:39:42;101432.22;;;23.45;36.58
73245;BME280;61460;41.158;-73.238;2023-03-01T01:42:16;101426.17;;;23.50;35.94
73245;BME280;61460;41.158;-73.238;2023-03-01T01:44:46;101425.57;;;23.25;36.16
73245;BME280;61460;41.158;-73.238;2023-03-01T01:47:17;101423.48;;;23.31;37.32
73245;BME280;61460;41.158;-73.238;2023-03-01T01:49:47;101431.54;;;23.51;36.76
73245;BME280;61460;41.158;-73.238;2023-03-01T01:52:18;101436.78;;;23.63;36.69
73245;BME280;61460;41.158;-73.238;2023-03-01T01:54:49;101431.17;;;23.59;36.97
73245;BME280;61460;41.158;-73.238;2023-03-01T01:57:20;101440.38;;;23.60;36.84
73245;BME280;61460;41.158;-73.238;2023-03-01T01:59:50;101445.39;;;23.60;36.87
73245;BME280;61460;41.158;-73.238;2023-03-01T02:02:18;101446.32;;;23.69;36.51
73245;BME280;61460;41.158;-73.238;2023-03-01T02:04:49;101454.43;;;23.72;36.55
73245;BME280;61460;41.158;-73.238;2023-03-01T02:07:21;101448.65;;;23.44;37.18
73245;BME280;61460;41.158;-73.238;2023-03-01T02:09:52;101462.47;;;23.34;37.14
73245;BME280;61460;41.158;-73.238;2023-03-01T02:12:23;101472.79;;;23.66;35.62
73245;BME280;61460;41.158;-73.238;2023-03-01T02:14:51;101479.51;;;23.80;35.86
73245;BME280;61460;41.158;-73.238;2023-03-01T02:17:21;101481.92;;;23.84;35.96
73245;BME280;61460;41.158;-73.238;2023-03-01T02:20:03;101480.35;;;23.36;37.31
73245;BME280;61460;41.158;-73.238;2023-03-01T02:22:24;101485.65;;;23.62;35.93
73245;BME280;61460;41.158;-73.238;2023-03-01T02:25:03;101487.53;;;23.85;35.32
73245;BME280;61460;41.158;-73.238;2023-03-01T02:27:27;101490.04;;;23.92;35.31
73245;BME280;61460;41.158;-73.238;2023-03-01T02:29:54;101492.37;;;24.00;35.01
73245;BME280;61460;41.158;-73.238;2023-03-01T02:32:25;101483.73;;;24.02;35.13
73245;BME280;61460;41.158;-73.238;2023-03-01T02:34:56;101486.03;;;23.95;35.50
73245;BME280;61460;41.158;-73.238;2023-03-01T02:37:26;101486.80;;;23.54;35.23
73245;BME280;61460;41.158;-73.238;2023-03-01T02:40:01;101487.54;;;23.63;35.52
73245;BME280;61460;41.158;-73.238;2023-03-01T02:42:31;101483.19;;;23.86;34.91
73245;BME280;61460;41.158;-73.238;2023-03-01T02:44:58;101489.07;;;23.84;34.96
73245;BME280;61460;41.158;-73.238;2023-03-01T02:47:29;101492.36;;;23.79;34.96
73245;BME280;61460;41.158;-73.238;2023-03-01T02:49:59;101496.19;;;23.70;35.71
73245;BME280;61460;41.158;-73.238;2023-03-01T02:52:36;101497.19;;;23.60;35.78
73245;BME280;61460;41.158;-73.238;2023-03-01T02:55:03;101499.47;;;23.66;35.83
73245;BME280;61460;41.158;-73.238;2023-03-01T02:57:34;101494.63;;;23.54;35.91
73245;BME280;61460;41.158;-73.238;2023-03-01T03:00:06;101492.05;;;23.53;36.16
73245;BME280;61460;41.158;-73.238;2023-03-01T03:02:33;101493.81;;;23.47;35.87
73245;BME280;61460;41.158;-73.238;2023-03-01T03:05:06;101494.42;;;23.14;35.91
73245;BME280;61460;41.158;-73.238;2023-03-01T03:07:34;101490.01;;;23.28;35.60
73245;BME280;61460;41.158;-73.238;2023-03-01T03:10:07;101490.66;;;23.19;36.17
73245;BME280;61460;41.158;-73.238;2023-03-01T03:12:35;101497.05;;;23.11;35.92
73245;BME280;61460;41.158;-73.238;2023-03-01T03:15:07;101500.64;;;23.15;36.24
73245;BME280;61460;41.158;-73.238;2023-03-01T03:17:36;101504.32;;;23.23;36.33
73245;BME280;61460;41.158;-73.238;2023-03-01T03:20:07;101503.08;;;23.28;36.06
73245;BME280;61460;41.158;-73.238;2023-03-01T03:22:35;101508.34;;;23.22;35.97
73245;BME280;61460;41.158;-73.238;2023-03-01T03:25:06;101509.05;;;23.20;36.19
73245;BME280;61460;41.158;-73.238;2023-03-01T03:27:37;101514.67;;;23.16;35.84
73245;BME280;61460;41.158;-73.238;2023-03-01T03:30:12;101519.31;;;22.99;35.97
73245;BME280;61460;41.158;-73.238;2023-03-01T03:32:39;101518.95;;;22.70;36.92
73245;BME280;61460;41.158;-73.238;2023-03-01T03:35:09;101520.55;;;22.78;36.58
73245;BME280;61460;41.158;-73.238;2023-03-01T03:37:40;101524.13;;;22.96;36.56
73245;BME280;61460;41.158;-73.238;2023-03-01T03:40:10;101529.47;;;22.94;36.72
73245;BME280;61460;41.158;-73.238;2023-03-01T03:42:40;101535.57;;;23.02;36.59
73245;BME280;61460;41.158;-73.238;2023-03-01T03:45:10;101541.91;;;23.02;36.55
73245;BME280;61460;41.158;-73.238;2023-03-01T03:47:41;101548.57;;;23.06;36.37
73245;BME280;61460;41.158;-73.238;2023-03-01T03:50:13;101550.97;;;23.09;36.14
73245;BME280;61460;41.158;-73.238;2023-03-01T03:52:43;101558.73;;;22.71;36.43
73245;BME280;61460;41.158;-73.238;2023-03-01T03:55:13;101557.85;;;22.75;36.57
73245;BME280;61460;41.158;-73.238;2023-03-01T03:57:44;101558.82;;;23.14;35.93
73245;BME280;61460;41.158;-73.238;2023-03-01T04:00:15;101564.56;;;22.93;36.30
73245;BME280;61460;41.158;-73.238;2023-03-01T04:02:46;101569.98;;;22.93;36.40
73245;BME280;61460;41.158;-73.238;2023-03-01T04:05:17;101571.33;;;22.92;36.57
73245;BME280;61460;41.158;-73.238;2023-03-01T04:07:46;101567.31;;;22.98;36.33
73245;BME280;61460;41.158;-73.238;2023-03-01T04:10:17;101566.73;;;23.03;36.06
73245;BME280;61460;41.158;-73.238;2023-03-01T04:12:46;101570.51;;;22.95;36.20
73245;BME280;61460;41.158;-73.238;2023-03-01T04:15:16;101568.78;;;22.92;36.26
73245;BME280;61460;41.158;-73.238;2023-03-01T04:17:47;101570.47;;;22.77;36.35
73245;BME280;61460;41.158;-73.238;2023-03-01T04:20:19;101570.65;;;22.58;36.40
73245;BME280;61460;41.158;-73.238;2023-03-01T04:22:48;101568.53;;;22.70;36.85
73245;BME280;61460;41.158;-73.238;2023-03-01T04:25:19;101571.25;;;22.83;36.21
73245;BME280;61460;41.158;-73.238;2023-03-01T04:27:49;101581.33;;;22.86;36.64
73245;BME280;61460;41.158;-73.238;2023-03-01T04:30:19;101586.32;;;22.91;36.39
73245;BME280;61460;41.158;-73.238;2023-03-01T04:32:50;101589.33;;;22.95;36.33
73245;BME280;61460;41.158;-73.238;2023-03-01T04:35:21;101588.37;;;22.98;36.43
73245;BME280;61460;41.158;-73.238;2023-03-01T04:37:51;101591.07;;;22.96;36.72
73245;BME280;61460;41.158;-73.238;2023-03-01T04:40:22;101598.64;;;22.99;36.56
73245;BME280;61460;41.158;-73.238;2023-03-01T04:42:53;101602.29;;;22.66;36.63
73245;BME280;61460;41.158;-73.238;2023-03-01T04:45:23;101604.65;;;22.83;36.69
73245;BME280;61460;41.158;-73.238;2023-03-01T04:47:54;101610.61;;;22.81;36.88
73245;BME280;61460;41.158;-73.238;2023-03-01T04:50:24;101612.10;;;22.63;37.41
73245;BME280;61460;41.158;-73.238;2023-03-01T04:52:54;101615.47;;;22.76;36.80
73245;BME280;61460;41.158;-73.238;2023-03-01T04:55:25;101624.11;;;22.82;37.03
73245;BME280;61460;41.158;-73.238;2023-03-01T04:57:55;101627.95;;;22.84;37.17
73245;BME280;61460;41.158;-73.238;2023-03-01T05:00:25;101623.98;;;22.86;36.73
73245;BME280;61460;41.158;-73.238;2023-03-01T05:02:57;101622.87;;;22.84;36.75
73245;BME280;61460;41.158;-73.238;2023-03-01T05:05:28;101622.41;;;22.63;36.68
73245;BME280;61460;41.158;-73.238;2023-03-01T05:07:58;101631.89;;;22.70;36.79
73245;BME280;61460;41.158;-73.238;2023-03-01T05:10:28;101636.15;;;22.80;36.61
73245;BME280;61460;41.158;-73.238;2023-03-01T05:12:58;101639.16;;;22.77;36.95
73245;BME280;61460;41.158;-73.238;2023-03-01T05:15:31;101641.18;;;22.61;37.14
73245;BME280;61460;41.158;-73.238;2023-03-01T05:17:59;101640.11;;;22.78;36.64
73245;BME280;61460;41.158;-73.238;2023-03-01T05:20:30;101646.99;;;22.75;37.34
73245;BME280;61460;41.158;-73.238;2023-03-01T05:23:00;101655.08;;;22.72;37.30
73245;BME280;61460;41.158;-73.238;2023-03-01T05:25:30;101652.61;;;22.84;36.55
73245;BME280;61460;41.158;-73.238;2023-03-01T05:28:01;101660.29;;;22.52;36.93
73245;BME280;61460;41.158;-73.238;2023-03-01T05:30:32;101669.09;;;22.71;36.83
73245;BME280;61460;41.158;-73.238;2023-03-01T05:33:02;101675.27;;;22.69;36.94
73245;BME280;61460;41.158;-73.238;2023-03-01T05:35:33;101681.73;;;22.71;36.76
73245;BME280;61460;41.158;-73.238;2023-03-01T05:38:03;101688.46;;;22.77;36.88
73245;BME280;61460;41.158;-73.238;2023-03-01T05:40:34;101689.67;;;22.73;36.95
73245;BME280;61460;41.158;-73.238;2023-03-01T05:43:04;101693.74;;;22.72;37.03
73245;BME280;61460;41.158;-73.238;2023-03-01T05:45:36;101698.48;;;22.66;37.49
73245;BME280;61460;41.158;-73.238;2023-03-01T05:48:08;101706.30;;;22.75;36.82
73245;BME280;61460;41.158;-73.238;2023-03-01T05:50:38;101710.77;;;22.63;37.19
73245;BME280;61460;41.158;-73.238;2023-03-01T05:53:07;101719.53;;;22.72;38.19
73245;BME280;61460;41.158;-73.238;2023-03-01T05:55:37;101715.96;;;22.78;37.45
73245;BME280;61460;41.158;-73.238;2023-03-01T05:58:09;101722.71;;;22.80;37.65
73245;BME280;61460;41.158;-73.238;2023-03-01T06:00:38;101729.31;;;22.63;37.27
73245;BME280;61460;41.158;-73.238;2023-03-01T06:03:10;101733.80;;;22.58;37.64
73245;BME280;61460;41.158;-73.238;2023-03-01T06:05:39;101736.10;;;22.84;37.49
73245;BME280;61460;41.158;-73.238;2023-03-01T06:08:10;101739.67;;;22.80;36.95
73245;BME280;61460;41.158;-73.238;2023-03-01T06:10:39;101747.15;;;22.86;37.42
73245;BME280;61460;41.158;-73.238;2023-03-01T06:13:10;101745.00;;;22.90;37.17
73245;BME280;61460;41.158;-73.238;2023-03-01T06:15:40;101741.85;;;22.95;36.97
73245;BME280;61460;41.158;-73.238;2023-03-01T06:18:10;101746.57;;;22.78;37.00
73245;BME280;61460;41.158;-73.238;2023-03-01T06:20:41;101745.50;;;22.49;37.13
73245;BME280;61460;41.158;-73.238;2023-03-01T06:23:12;101748.27;;;22.63;36.97
73245;BME280;61460;41.158;-73.238;2023-03-01T06:25:43;101752.81;;;22.75;36.65
73245;BME280;61460;41.158;-73.238;2023-03-01T06:28:13;101756.69;;;22.74;36.90
73245;BME280;61460;41.158;-73.238;2023-03-01T06:30:44;101754.95;;;22.75;36.73
73245;BME280;61460;41.158;-73.238;2023-03-01T06:33:14;101757.64;;;22.84;36.66
73245;BME280;61460;41.158;-73.238;2023-03-01T06:35:45;101766.95;;;22.75;36.94
73245;BME280;61460;41.158;-73.238;2023-03-01T06:38:16;101762.86;;;22.85;36.82
73245;BME280;61460;41.158;-73.238;2023-03-01T06:40:51;101766.17;;;22.67;36.67
73245;BME280;61460;41.158;-73.238;2023-03-01T06:43:16;101770.25;;;22.68;36.76
73245;BME280;61460;41.158;-73.238;2023-03-01T06:45:47;101770.80;;;22.67;36.86
73245;BME280;61460;41.158;-73.238;2023-03-01T06:48:18;101771.61;;;22.69;36.91
73245;BME280;61460;41.158;-73.238;2023-03-01T06:50:48;101777.37;;;22.79;36.71
73245;BME280;61460;41.158;-73.238;2023-03-01T06:53:18;101780.06;;;22.72;36.72
73245;BME280;61460;41.158;-73.238;2023-03-01T06:55:54;101782.29;;;22.60;36.97
73245;BME280;61460;41.158;-73.238;2023-03-01T06:58:20;101785.05;;;22.72;36.39
73245;BME280;61460;41.158;-73.238;2023-03-01T07:00:50;101790.90;;;22.65;36.47
73245;BME280;61460;41.158;-73.238;2023-03-01T07:03:20;101794.52;;;22.65;36.90
73245;BME280;61460;41.158;-73.238;2023-03-01T07:05:51;101797.71;;;22.73;36.65
73245;BME280;61460;41.158;-73.238;2023-03-01T07:08:21;101793.03;;;22.76;36.53
73245;BME280;61460;41.158;-73.238;2023-03-01T07:10:55;101789.84;;;22.80;36.27
73245;BME280;61460;41.158;-73.238;2023-03-01T07:13:23;101804.26;;;22.54;36.45
73245;BME280;61460;41.158;-73.238;2023-03-01T07:15:53;101803.39;;;22.62;36.57
73245;BME280;61460;41.158;-73.238;2023-03-01T07:18:24;101806.38;;;22.67;36.28
73245;BME280;61460;41.158;-73.238;2023-03-01T07:20:54;101817.08;;;22.72;36.52
73245;BME280;61460;41.158;-73.238;2023-03-01T07:23:24;101815.62;;;22.78;36.45
73245;BME280;61460;41.158;-73.238;2023-03-01T07:25:55;101818.28;;;22.78;36.32
73245;BME280;61460;41.158;-73.238;2023-03-01T07:28:25;101829.42;;;22.77;36.09
73245;BME280;61460;41.158;-73.238;2023-03-01T07:30:55;101833.64;;;22.44;36.52
73245;BME280;61460;41.158;-73.238;2023-03-01T07:33:25;101838.69;;;22.72;35.99
73245;BME280;61460;41.158;-73.238;2023-03-01T07:35:57;101842.90;;;22.50;37.04
73245;BME280;61460;41.158;-73.238;2023-03-01T07:38:26;101841.33;;;22.60;36.59
73245;BME280;61460;41.158;-73.238;2023-03-01T07:40:58;101848.21;;;22.64;37.16
73245;BME280;61460;41.158;-73.238;2023-03-01T07:43:28;101851.59;;;22.62;37.21
73245;BME280;61460;41.158;-73.238;2023-03-01T07:45:59;101854.17;;;22.74;36.74
73245;BME280;61460;41.158;-73.238;2023-03-01T07:48:30;101849.23;;;22.50;36.62
73245;BME280;61460;41.158;-73.238;2023-03-01T07:50:59;101846.14;;;22.46;36.92
73245;BME280;61460;41.158;-73.238;2023-03-01T07:53:30;101845.23;;;22.58;36.67
73245;BME280;61460;41.158;-73.238;2023-03-01T07:56:02;101844.02;;;22.55;37.18
73245;BME280;61460;41.158;-73.238;2023-03-01T07:58:31;101847.27;;;22.57;37.17
73245;BME280;61460;41.158;-73.238;2023-03-01T08:01:02;101848.55;;;22.56;37.11
73245;BME280;61460;41.158;-73.238;2023-03-01T08:03:33;101853.39;;;22.55;36.90
73245;BME280;61460;41.158;-73.238;2023-03-01T08:06:05;101855.33;;;22.52;37.34
73245;BME280;61460;41.158;-73.238;2023-03-01T08:08:34;101861.07;;;22.35;36.89
73245;BME280;61460;41.158;-73.238;2023-03-01T08:11:05;101868.91;;;22.49;36.64
73245;BME280;61460;41.158;-73.238;2023-03-01T08:13:34;101879.74;;;22.49;37.21
73245;BME280;61460;41.158;-73.238;2023-03-01T08:16:09;101885.10;;;22.55;37.04
73245;BME280;61460;41.158;-73.238;2023-03-01T08:18:35;101890.91;;;22.53;37.07
73245;BME280;61460;41.158;-73.238;2023-03-01T08:21:07;101894.73;;;22.50;37.04
73245;BME280;61460;41.158;-73.238;2023-03-01T08:23:36;101896.52;;;22.46;36.68
73245;BME280;61460;41.158;-73.238;2023-03-01T08:26:08;101899.37;;;22.43;37.05
73245;BME280;61460;41.158;-73.238;2023-03-01T08:28:38;101902.46;;;22.64;36.72
73245;BME280;61460;41.158;-73.238;2023-03-01T08:31:14;101900.04;;;22.57;36.66
73245;BME280;61460;41.158;-73.238;2023-03-01T08:33:38;101907.92;;;22.56;37.25
73245;BME280;61460;41.158;-73.238;2023-03-01T08:36:09;101905.66;;;22.59;37.33
73245;BME280;61460;41.158;-73.238;2023-03-01T08:38:39;101898.98;;;22.66;37.24
73245;BME280;61460;41.158;-73.238;2023-03-01T08:41:10;101899.86;;;22.65;36.83
73245;BME280;61460;41.158;-73.238;2023-03-01T08:43:40;101902.48;;;22.39;36.60
73245;BME280;61460;41.158;-73.238;2023-03-01T08:46:11;101905.66;;;22.44;36.52
73245;BME280;61460;41.158;-73.238;2023-03-01T08:48:41;101909.05;;;22.50;36.69
73245;BME280;61460;41.158;-73.238;2023-03-01T08:51:14;101903.29;;;22.48;37.04
73245;BME280;61460;41.158;-73.238;2023-03-01T08:53:42;101904.71;;;22.50;37.01
73245;BME280;61460;41.158;-73.238;2023-03-01T08:56:12;101909.07;;;22.46;36.93
73245;BME280;61460;41.158;-73.238;2023-03-01T08:58:44;101912.47;;;22.49;36.91
73245;BME280;61460;41.158;-73.238;2023-03-01T09:01:15;101913.68;;;22.49;37.10
73245;BME280;61460;41.158;-73.238;2023-03-01T09:03:44;101917.56;;;22.49;36.84
73245;BME280;61460;41.158;-73.238;2023-03-01T09:06:14;101916.76;;;22.52;36.66
73245;BME280;61460;41.158;-73.238;2023-03-01T09:08:46;101924.96;;;22.56;37.04
73245;BME280;61460;41.158;-73.238;2023-03-01T09:11:17;101930.84;;;22.55;37.38
73245;BME280;61460;41.158;-73.238;2023-03-01T09:13:46;101932.20;;;22.60;37.05
73245;BME280;61460;41.158;-73.238;2023-03-01T09:16:18;101938.78;;;22.27;37.08
73245;BME280;61460;41.158;-73.238;2023-03-01T09:18:49;101944.59;;;22.53;37.03
73245;BME280;61460;41.158;-73.238;2023-03-01T09:21:18;101953.90;;;22.50;37.14
73245;BME280;61460;41.158;-73.238;2023-03-01T09:23:48;101964.08;;;22.41;37.42
73245;BME280;61460;41.158;-73.238;2023-03-01T09:26:20;101968.70;;;22.40;37.40
73245;BME280;61460;41.158;-73.238;2023-03-01T09:28:51;101977.03;;;22.36;37.68
73245;BME280;61460;41.158;-73.238;2023-03-01T09:31:21;101972.11;;;22.18;37.70
73245;BME280;61460;41.158;-73.238;2023-03-01T09:33:52;101970.82;;;22.14;37.46
73245;BME280;61460;41.158;-73.238;2023-03-01T09:36:22;101973.87;;;22.31;37.55
73245;BME280;61460;41.158;-73.238;2023-03-01T09:38:50;101971.12;;;22.34;37.50
73245;BME280;61460;41.158;-73.238;2023-03-01T09:43:53;101971.26;;;22.48;37.20
73245;BME280;61460;41.158;-73.238;2023-03-01T09:46:23;101968.11;;;22.19;37.88
73245;BME280;61460;41.158;-73.238;2023-03-01T09:48:56;101967.28;;;22.24;37.50
73245;BME280;61460;41.158;-73.238;2023-03-01T09:51:27;101968.27;;;22.09;37.35
73245;BME280;61460;41.158;-73.238;2023-03-01T09:53:53;101972.46;;;22.21;37.46
73245;BME280;61460;41.158;-73.238;2023-03-01T09:56:28;101972.47;;;22.25;37.42
73245;BME280;61460;41.158;-73.238;2023-03-01T09:58:59;101981.24;;;22.36;37.27
73245;BME280;61460;41.158;-73.238;2023-03-01T10:01:29;101981.52;;;22.38;37.28
73245;BME280;61460;41.158;-73.238;2023-03-01T10:06:25;101971.36;;;22.34;36.97
73245;BME280;61460;41.158;-73.238;2023-03-01T10:08:57;101969.42;;;22.08;37.34
73245;BME280;61460;41.158;-73.238;2023-03-01T10:11:30;101970.73;;;22.17;37.01
73245;BME280;61460;41.158;-73.238;2023-03-01T10:14:01;101973.71;;;22.26;37.37
73245;BME280;61460;41.158;-73.238;2023-03-01T10:16:32;101976.02;;;22.36;37.07
73245;BME280;61460;41.158;-73.238;2023-03-01T10:19:00;101975.47;;;22.43;37.03
73245;BME280;61460;41.158;-73.238;2023-03-01T10:21:29;101984.77;;;22.26;37.32
73245;BME280;61460;41.158;-73.238;2023-03-01T10:24:08;101987.64;;;22.19;37.20
73245;BME280;61460;41.158;-73.238;2023-03-01T10:26:40;101989.13;;;22.04;37.31
73245;BME280;61460;41.158;-73.238;2023-03-01T10:29:02;101988.19;;;22.11;36.96
73245;BME280;61460;41.158;-73.238;2023-03-01T10:31:39;101979.07;;;22.24;37.20
73245;BME280;61460;41.158;-73.238;2023-03-01T10:34:00;101974.88;;;22.29;37.40
73245;BME280;61460;41.158;-73.238;2023-03-01T10:36:33;101976.56;;;22.29;37.56
73245;BME280;61460;41.158;-73.238;2023-03-01T10:39:11;101979.85;;;22.33;37.42
73245;BME280;61460;41.158;-73.238;2023-03-01T10:41:31;101973.42;;;22.33;37.50
73245;BME280;61460;41.158;-73.238;2023-03-01T10:44:02;101962.69;;;22.28;37.29
73245;BME280;61460;41.158;-73.238;2023-03-01T10:46:34;101966.29;;;22.29;37.19
73245;BME280;61460;41.158;-73.238;2023-03-01T10:49:13;101966.56;;;22.31;37.37
73245;BME280;61460;41.158;-73.238;2023-03-01T10:51:34;101972.75;;;22.31;37.24
73245;BME280;61460;41.158;-73.238;2023-03-01T10:54:06;101969.92;;;22.37;37.28
73245;BME280;61460;41.158;-73.238;2023-03-01T10:59:18;101959.96;;;22.25;37.52
73245;BME280;61460;41.158;-73.238;2023-03-01T11:01:36;101965.80;;;22.06;37.45
73245;BME280;61460;41.158;-73.238;2023-03-01T11:04:12;101977.28;;;22.00;37.24
73245;BME280;61460;41.158;-73.238;2023-03-01T11:06:38;101986.20;;;22.19;37.23
73245;BME280;61460;41.158;-73.238;2023-03-01T11:09:14;101988.18;;;22.31;37.12
73245;BME280;61460;41.158;-73.238;2023-03-01T11:11:38;101989.29;;;22.34;37.12
73245;BME280;61460;41.158;-73.238;2023-03-01T11:14:15;102001.12;;;22.35;37.20
73245;BME280;61460;41.158;-73.238;2023-03-01T11:16:41;102001.45;;;22.19;37.71
73245;BME280;61460;41.158;-73.238;2023-03-01T11:19:15;102008.61;;;22.31;37.55
73245;BME280;61460;41.158;-73.238;2023-03-01T11:21:41;102008.18;;;22.02;37.44
73245;BME280;61460;41.158;-73.238;2023-03-01T11:24:12;102013.49;;;22.08;37.11
73245;BME280;61460;41.158;-73.238;2023-03-01T11:26:42;102020.03;;;22.24;37.34
73245;BME280;61460;41.158;-73.238;2023-03-01T11:29:16;102017.16;;;22.19;37.40
73245;BME280;61460;41.158;-73.238;2023-03-01T11:31:41;102008.56;;;22.22;37.32
73245;BME280;61460;41.158;-73.238;2023-03-01T11:34:14;102014.11;;;22.25;37.12
73245;BME280;61460;41.158;-73.238;2023-03-01T11:36:46;102016.32;;;22.23;37.23
73245;BME280;61460;41.158;-73.238;2023-03-01T11:39:22;102025.72;;;22.24;37.75
73245;BME280;61460;41.158;-73.238;2023-03-01T11:41:42;102032.06;;;21.99;37.25
73245;BME280;61460;41.158;-73.238;2023-03-01T11:44:18;102042.02;;;22.26;36.85
73245;BME280;61460;41.158;-73.238;2023-03-01T11:46:57;102045.60;;;22.24;37.23
73245;BME280;61460;41.158;-73.238;2023-03-01T11:51:51;102040.91;;;22.28;37.08
73245;BME280;61460;41.158;-73.238;2023-03-01T11:54:27;102047.14;;;22.31;37.04
73245;BME280;61460;41.158;-73.238;2023-03-01T11:56:48;102048.53;;;22.33;37.27
73245;BME280;61460;41.158;-73.238;2023-03-01T11:59:29;102041.78;;;22.10;37.19
73245;BME280;61460;41.158;-73.238;2023-03-01T12:01:58;102043.33;;;22.14;36.76
73245;BME280;61460;41.158;-73.238;2023-03-01T12:06:55;102059.88;;;22.27;36.94
73245;BME280;61460;41.158;-73.238;2023-03-01T12:09:27;102063.39;;;22.39;36.86
73245;BME280;61460;41.158;-73.238;2023-03-01T12:11:57;102060.91;;;22.43;36.61
73245;BME280;61460;41.158;-73.238;2023-03-01T12:14:30;102064.63;;;22.51;36.82
73245;BME280;61460;41.158;-73.238;2023-03-01T12:16:59;102065.92;;;22.50;36.69
73245;BME280;61460;41.158;-73.238;2023-03-01T12:19:31;102061.19;;;22.43;36.51
73245;BME280;61460;41.158;-73.238;2023-03-01T12:22:01;102062.81;;;22.55;37.76
73245;BME280;61460;41.158;-73.238;2023-03-01T12:24:35;102055.11;;;22.48;37.29
73245;BME280;61460;41.158;-73.238;2023-03-01T12:26:58;102055.59;;;22.64;36.78
73245;BME280;61460;41.158;-73.238;2023-03-01T12:29:25;102054.06;;;22.74;37.11
73245;BME280;61460;41.158;-73.238;2023-03-01T12:34:33;102063.60;;;23.17;36.58
73245;BME280;61460;41.158;-73.238;2023-03-01T12:36:59;102064.35;;;23.27;36.85
73245;BME280;61460;41.158;-73.238;2023-03-01T12:39:33;102067.83;;;23.38;35.72
73245;BME280;61460;41.158;-73.238;2023-03-01T12:42:02;102069.33;;;22.98;37.00
73245;BME280;61460;41.158;-73.238;2023-03-01T12:44:33;102064.27;;;23.52;36.20
73245;BME280;61460;41.158;-73.238;2023-03-01T12:47:06;102063.59;;;23.41;36.15
73245;BME280;61460;41.158;-73.238;2023-03-01T12:49:30;102063.40;;;23.34;36.44
73245;BME280;61460;41.158;-73.238;2023-03-01T12:52:00;102056.90;;;23.36;36.29
73245;BME280;61460;41.158;-73.238;2023-03-01T12:54:28;102057.73;;;23.36;36.18
73245;BME280;61460;41.158;-73.238;2023-03-01T12:57:00;102063.38;;;23.35;36.07
73245;BME280;61460;41.158;-73.238;2023-03-01T12:59:33;102061.58;;;23.32;35.76
73245;BME280;61460;41.158;-73.238;2023-03-01T13:02:04;102047.46;;;23.33;35.67